createdAt,value
2023-02-06T00:01:24.752Z,102752.13
2023-02-06T00:04:41.453Z,102750.90
2023-02-06T00:07:55.735Z,102758.52
2023-02-06T00:11:15.021Z,102760.30
2023-02-06T00:14:14.174Z,102763.14
2023-02-06T00:17:09.619Z,102758.09
2023-02-06T00:20:08.838Z,102756.23
2023-02-06T00:23:37.628Z,102752.55
2023-02-06T00:26:30.281Z,102748.37
2023-02-06T00:29:33.627Z,102743.30
2023-02-06T00:32:57.280Z,102741.52
2023-02-06T00:35:46.761Z,102738.98
2023-02-06T00:39:13.713Z,102740.79
2023-02-06T00:42:02.137Z,102741.05
2023-02-06T00:45:01.564Z,102735.30
2023-02-06T00:52:12.662Z,102729.17
2023-02-06T00:55:16.420Z,102737.45
2023-02-06T00:58:22.645Z,102737.02
2023-02-06T01:04:37.035Z,102714.48
2023-02-06T01:08:29.534Z,102701.80
2023-02-06T01:11:54.222Z,102703.59
2023-02-06T01:14:59.349Z,102700.45
2023-02-06T01:18:38.382Z,102697.83
2023-02-06T01:21:28.080Z,102695.60
2023-02-06T01:27:12.464Z,102696.69
2023-02-06T01:30:19.164Z,102697.56
2023-02-06T01:33:14.169Z,102695.98
2023-02-06T01:36:10.941Z,102700.15
2023-02-06T01:38:57.326Z,102701.35
2023-02-06T01:41:45.533Z,102702.55
2023-02-06T01:44:46.652Z,102701.61
2023-02-06T01:47:57.111Z,102698.70
2023-02-06T01:51:01.312Z,102711.01
2023-02-06T01:54:04.346Z,102713.37
2023-02-06T01:57:18.406Z,102727.84
2023-02-06T02:00:32.294Z,102732.06
2023-02-06T02:03:18.381Z,102736.06
2023-02-06T02:06:39.176Z,102736.41
2023-02-06T02:09:42.092Z,102737.92
2023-02-06T02:12:46.442Z,102743.38
2023-02-06T02:15:55.473Z,102739.36
2023-02-06T02:19:38.131Z,102732.27
2023-02-06T02:23:37.268Z,102734.36
2023-02-06T02:26:48.059Z,102725.17
2023-02-06T02:30:19.185Z,102717.61
2023-02-06T02:33:25.513Z,102705.86
2023-02-06T02:37:03.062Z,102705.27
2023-02-06T02:40:43.467Z,102699.38
2023-02-06T02:43:57.928Z,102706.27
2023-02-06T02:46:58.033Z,102701.95
2023-02-06T02:50:11.164Z,102695.30
2023-02-06T02:53:28.083Z,102698.66
2023-02-06T02:56:45.342Z,102697.52
2023-02-06T03:03:20.854Z,102696.52
2023-02-06T03:07:21.784Z,102692.05
2023-02-06T03:11:01.016Z,102684.82
2023-02-06T03:14:42.972Z,102683.85
2023-02-06T03:18:10.169Z,102676.45
2023-02-06T03:21:26.802Z,102676.14
2023-02-06T03:28:38.408Z,102672.27
2023-02-06T03:32:02.488Z,102670.38
2023-02-06T03:35:18.274Z,102664.22
2023-02-06T03:38:43.234Z,102662.50
2023-02-06T03:42:26.714Z,102660.65
2023-02-06T03:45:55.704Z,102669.80
2023-02-06T03:52:43.252Z,102662.25
2023-02-06T03:55:46.768Z,102660.92
2023-02-06T03:58:49.890Z,102659.55
2023-02-06T04:02:03.875Z,102659.17
2023-02-06T04:05:29.232Z,102660.98
2023-02-06T04:09:10.558Z,102657.83
2023-02-06T04:12:17.020Z,102659.45
2023-02-06T04:15:16.594Z,102658.70
2023-02-06T04:18:20.512Z,102659.29
2023-02-06T04:21:26.863Z,102662.21
2023-02-06T04:24:59.672Z,102661.09
2023-02-06T04:28:34.652Z,102662.11
2023-02-06T04:38:11.724Z,102653.65
2023-02-06T04:41:14.330Z,102650.33
2023-02-06T04:44:12.287Z,102655.62
2023-02-06T04:47:01.097Z,102656.18
2023-02-06T04:51:26.310Z,102660.05
2023-02-06T04:53:26.716Z,102661.79
2023-02-06T04:56:33.131Z,102660.21
2023-02-06T04:59:22.645Z,102658.88
2023-02-06T05:02:26.867Z,102664.09
2023-02-06T05:05:06.247Z,102668.62
2023-02-06T05:07:47.808Z,102666.69
2023-02-06T05:10:57.023Z,102662.27
2023-02-06T05:14:15.300Z,102662.66
2023-02-06T05:17:11.924Z,102657.17
2023-02-06T05:20:16.350Z,102655.11
2023-02-06T05:27:34.625Z,102663.08
2023-02-06T05:30:36.783Z,102655.91
2023-02-06T05:33:35.353Z,102656.95
2023-02-06T05:37:05.936Z,102659.88
2023-02-06T05:39:54.046Z,102663.71
2023-02-06T05:42:52.295Z,102666.23
2023-02-06T05:45:57.532Z,102671.31
2023-02-06T05:48:52.449Z,102676.00
2023-02-06T05:52:18.968Z,102673.96
2023-02-06T05:55:34.908Z,102677.56
2023-02-06T05:58:33.225Z,102678.20
2023-02-06T06:01:54.884Z,102677.64
2023-02-06T06:05:52.604Z,102678.84
2023-02-06T06:08:49.043Z,102683.19
2023-02-06T06:15:22.014Z,102687.72
2023-02-06T06:18:06.600Z,102689.58
2023-02-06T06:21:26.642Z,102688.52
2023-02-06T06:24:44.805Z,102687.09
2023-02-06T06:28:01.768Z,102684.77
2023-02-06T06:31:03.412Z,102688.59
2023-02-06T06:33:57.894Z,102688.20
2023-02-06T06:37:21.767Z,102690.25
2023-02-06T06:40:51.265Z,102688.27
2023-02-06T06:44:27.253Z,102686.18
2023-02-06T06:48:24.774Z,102689.68
2023-02-06T06:52:37.544Z,102688.52
2023-02-06T07:06:34.439Z,102696.21
2023-02-06T07:09:36.697Z,102698.98
2023-02-06T07:12:16.897Z,102704.95
2023-02-06T07:14:55.214Z,102703.77
2023-02-06T07:17:40.586Z,102706.45
2023-02-06T07:20:51.776Z,102707.65
2023-02-06T07:23:36.298Z,102707.55
2023-02-06T07:26:46.850Z,102709.27
2023-02-06T07:29:44.524Z,102709.41
2023-02-06T07:32:42.367Z,102712.63
2023-02-06T07:36:22.581Z,102713.54
2023-02-06T07:39:15.450Z,102714.46
2023-02-06T07:42:12.680Z,102715.98
2023-02-06T07:45:51.345Z,102715.41
2023-02-06T08:04:36.147Z,102721.13
2023-02-06T08:10:54.111Z,102716.86
2023-02-06T08:13:57.009Z,102711.73
2023-02-06T08:16:54.244Z,102717.88
2023-02-06T08:19:58.761Z,102726.28
2023-02-06T08:23:20.836Z,102728.13
2023-02-06T08:26:27.490Z,102727.86
2023-02-06T08:29:25.787Z,102724.45
2023-02-06T08:32:30.034Z,102720.08
2023-02-06T08:35:59.827Z,102718.43
2023-02-06T08:39:28.720Z,102722.15
2023-02-06T08:42:55.114Z,102726.04
2023-02-06T08:46:19.366Z,102729.37
2023-02-06T08:53:58.062Z,102737.63
2023-02-06T09:03:36.777Z,102735.84
2023-02-06T09:24:04.210Z,102739.81
2023-02-06T09:28:21.118Z,102732.88
2023-02-06T09:33:07.245Z,102728.59
2023-02-06T09:34:49.318Z,102727.01
2023-02-06T09:37:38.210Z,102726.67
2023-02-06T09:40:41.942Z,102728.61
2023-02-06T09:43:41.593Z,102729.45
2023-02-06T09:46:55.061Z,102729.33
2023-02-06T09:50:12.678Z,102732.47
2023-02-06T09:53:24.298Z,102736.75
2023-02-06T09:56:52.751Z,102738.33
2023-02-06T10:03:03.582Z,102738.83
2023-02-06T10:06:38.016Z,102741.48
2023-02-06T10:10:00.012Z,102741.35
2023-02-06T10:17:11.127Z,102742.39
2023-02-06T10:25:01.184Z,102747.98
2023-02-06T10:27:48.651Z,102745.42
2023-02-06T10:30:50.134Z,102746.05
2023-02-06T10:34:39.336Z,102743.98
2023-02-06T10:39:42.956Z,102745.23
2023-02-06T10:47:16.200Z,102739.85
2023-02-06T10:50:57.291Z,102730.17
2023-02-06T11:37:17.541Z,102719.91
2023-02-06T11:40:40.014Z,102721.27
2023-02-06T11:43:48.605Z,102719.81
2023-02-06T11:47:04.663Z,102716.71
2023-02-06T11:50:02.635Z,102720.69
2023-02-06T11:52:45.748Z,102716.63
2023-02-06T11:55:34.983Z,102714.41
2023-02-06T11:58:39.831Z,102705.86
2023-02-06T12:01:33.325Z,102700.79
2023-02-06T12:04:41.435Z,102699.45
2023-02-06T12:07:49.877Z,102697.10
2023-02-06T12:11:06.346Z,102702.83
2023-02-06T12:14:21.684Z,102700.91
2023-02-06T12:17:45.199Z,102704.31
2023-02-06T12:31:20.966Z,102693.52
2023-02-06T12:53:26.694Z,102683.73
2023-02-06T13:03:54.713Z,102693.10
2023-02-06T13:07:32.251Z,102695.18
2023-02-06T13:10:31.030Z,102704.84
2023-02-06T13:13:30.168Z,102703.71
2023-02-06T13:16:20.038Z,102699.58
2023-02-06T16:14:59.360Z,102796.05
2023-02-06T16:17:40.900Z,102803.23
2023-02-06T16:20:38.914Z,102803.98
2023-02-06T16:23:27.842Z,102804.08
2023-02-06T16:26:12.663Z,102807.80
2023-02-06T16:29:03.712Z,102808.10
2023-02-06T16:31:37.749Z,102813.16
2023-02-06T16:34:30.808Z,102815.42
2023-02-06T16:36:59.110Z,102820.14
2023-02-06T16:39:27.507Z,102826.83
2023-02-06T16:41:55.202Z,102831.17
2023-02-06T16:44:33.055Z,102834.77
2023-02-06T16:47:12.509Z,102836.14
2023-02-06T16:49:40.804Z,102836.11
2023-02-06T16:52:18.077Z,102834.54
2023-02-06T16:54:46.757Z,102830.81
2023-02-06T16:57:32.761Z,102822.73
2023-02-06T17:00:03.363Z,102814.86
2023-02-06T17:02:31.128Z,102805.92
2023-02-06T17:04:59.008Z,102808.63
2023-02-06T17:07:31.426Z,102816.63
2023-02-06T17:09:59.423Z,102826.16
2023-02-06T17:12:28.134Z,102836.09
2023-02-06T17:14:56.052Z,102836.75
2023-02-06T17:17:27.306Z,102836.14
2023-02-06T17:19:55.894Z,102842.85
2023-02-06T17:22:23.760Z,102845.11
2023-02-06T17:24:51.934Z,102842.44
2023-02-06T17:30:31.879Z,102848.10
2023-02-06T17:33:00.191Z,102852.01
2023-02-06T17:35:29.030Z,102855.09
2023-02-06T17:38:00.166Z,102855.91
2023-02-06T17:40:44.064Z,102864.62
2023-02-06T17:44:05.814Z,102873.31
2023-02-06T17:47:00.743Z,102877.60
2023-02-06T17:49:34.666Z,102872.00
2023-02-06T17:52:02.972Z,102868.98
2023-02-06T17:54:35.585Z,102872.30
2023-02-06T17:57:11.800Z,102870.80
2023-02-06T18:00:25.031Z,102863.13
2023-02-06T18:03:15.153Z,102865.34
2023-02-06T18:06:00.778Z,102865.02
2023-02-06T18:08:33.539Z,102859.06
2023-02-06T18:11:21.227Z,102854.19
2023-02-06T18:13:50.905Z,102852.52
2023-02-06T18:16:23.247Z,102855.12
2023-02-06T18:18:51.382Z,102860.26
2023-02-06T18:21:21.045Z,102862.38
2023-02-06T18:23:52.705Z,102856.97
2023-02-06T18:26:22.217Z,102854.80
2023-02-06T18:28:51.535Z,102856.38
2023-02-06T18:31:27.650Z,102854.83
2023-02-06T18:34:08.461Z,102853.14
2023-02-06T18:36:37.673Z,102845.39
2023-02-06T18:39:06.341Z,102849.82
2023-02-06T18:41:52.587Z,102855.27
2023-02-06T18:44:20.514Z,102855.92
2023-02-06T18:46:48.210Z,102861.98
2023-02-06T18:49:17.222Z,102865.20
2023-02-06T18:51:46.042Z,102864.94
2023-02-06T18:54:14.103Z,102855.10
2023-02-06T18:56:41.952Z,102849.70
2023-02-06T18:59:09.807Z,102853.54
2023-02-06T19:01:38.399Z,102863.16
2023-02-06T19:04:07.194Z,102869.09
2023-02-06T19:06:36.096Z,102866.55
2023-02-06T19:09:06.508Z,102861.71
2023-02-06T19:11:36.565Z,102864.39
2023-02-06T19:14:11.206Z,102866.99
2023-02-06T19:16:40.264Z,102864.88
2023-02-06T19:19:08.132Z,102868.27
2023-02-06T19:21:36.400Z,102876.89
2023-02-06T19:24:05.322Z,102879.62
2023-02-06T19:26:33.536Z,102886.02
2023-02-06T19:29:01.637Z,102882.02
2023-02-06T19:31:31.453Z,102881.33
2023-02-06T19:34:01.732Z,102880.09
2023-02-06T19:36:31.778Z,102882.65
2023-02-06T19:39:04.795Z,102887.85
2023-02-06T19:41:35.144Z,102890.16
2023-02-06T19:44:08.373Z,102893.38
2023-02-06T19:46:37.868Z,102901.55
2023-02-06T19:49:08.285Z,102900.96
2023-02-06T19:51:41.339Z,102894.92
2023-02-06T19:54:09.280Z,102897.65
2023-02-06T19:56:42.115Z,102904.31
2023-02-06T19:59:19.747Z,102906.84
2023-02-06T20:01:54.282Z,102907.98
2023-02-06T20:04:28.436Z,102913.93
2023-02-06T20:06:56.932Z,102920.50
2023-02-06T20:09:28.079Z,102913.55
2023-02-06T20:11:56.329Z,102905.84
2023-02-06T20:14:25.694Z,102906.61
2023-02-06T20:16:53.419Z,102912.36
2023-02-06T20:19:25.758Z,102913.02
2023-02-06T20:21:58.065Z,102916.22
2023-02-06T20:24:32.073Z,102916.73
2023-02-06T20:27:07.293Z,102907.52
2023-02-06T20:29:38.893Z,102904.35
2023-02-06T20:32:06.868Z,102904.34
2023-02-06T20:34:35.479Z,102917.54
2023-02-06T20:37:04.247Z,102921.35
2023-02-06T20:39:34.074Z,102918.68
2023-02-06T20:42:01.686Z,102923.02
2023-02-06T20:44:30.049Z,102930.06
2023-02-06T20:47:00.623Z,102931.95
2023-02-06T20:49:30.960Z,102935.35
2023-02-06T20:52:00.809Z,102931.77
2023-02-06T20:54:30.024Z,102933.59
2023-02-06T20:56:59.784Z,102928.15
2023-02-06T20:59:28.100Z,102925.77
2023-02-06T21:01:56.621Z,102937.23
2023-02-06T21:04:24.569Z,102946.32
2023-02-06T21:06:56.030Z,102938.44
2023-02-06T21:09:23.765Z,102942.77
2023-02-06T21:11:51.416Z,102948.22
2023-02-06T21:14:19.708Z,102943.66
2023-02-06T21:16:50.533Z,102937.41
2023-02-06T21:19:20.269Z,102943.80
2023-02-06T21:21:49.059Z,102948.52
2023-02-06T21:24:20.990Z,102945.89
2023-02-06T21:26:49.226Z,102932.27
2023-02-06T21:29:17.088Z,102920.91
2023-02-06T21:31:45.640Z,102927.98
2023-02-06T21:34:24.252Z,102925.10
2023-02-06T21:36:54.067Z,102924.38
2023-02-06T21:39:26.459Z,102926.86
2023-02-06T21:41:54.683Z,102935.39
2023-02-06T21:44:44.404Z,102932.05
2023-02-06T21:47:12.150Z,102926.91
2023-02-06T21:49:39.844Z,102925.20
2023-02-06T21:52:07.756Z,102925.77
2023-02-06T21:54:35.555Z,102930.55
2023-02-06T21:57:03.511Z,102934.00
2023-02-06T21:59:33.455Z,102936.27
2023-02-06T22:02:01.480Z,102930.18
2023-02-06T22:04:29.295Z,102926.82
2023-02-06T22:06:59.632Z,102927.42
2023-02-06T22:09:27.526Z,102919.98
2023-02-06T22:11:55.188Z,102914.24
2023-02-06T22:14:23.015Z,102912.35
2023-02-06T22:16:50.892Z,102917.03
2023-02-06T22:19:18.845Z,102923.25
2023-02-06T22:21:47.407Z,102926.38
2023-02-06T22:24:15.091Z,102926.59
2023-02-06T22:26:43.625Z,102931.41
2023-02-06T22:29:17.041Z,102932.04
2023-02-06T22:31:48.152Z,102936.36
2023-02-06T22:34:20.464Z,102939.48
2023-02-06T22:36:50.507Z,102949.70
2023-02-06T22:39:19.005Z,102954.09
2023-02-06T22:41:47.797Z,102959.85
2023-02-06T22:44:19.502Z,102969.52
2023-02-06T22:46:52.664Z,102971.08
2023-02-06T22:49:21.772Z,102975.67
2023-02-06T22:51:49.947Z,102977.92
2023-02-06T22:54:18.145Z,102972.02
2023-02-06T22:56:47.630Z,102976.07
2023-02-06T22:59:38.709Z,102974.63
2023-02-06T23:02:09.012Z,102966.10
2023-02-06T23:04:37.947Z,102958.15
2023-02-06T23:07:06.044Z,102956.70
2023-02-06T23:09:37.949Z,102961.94
2023-02-06T23:12:06.387Z,102964.61
2023-02-06T23:14:34.249Z,102963.85
2023-02-06T23:17:03.478Z,102962.85
2023-02-06T23:19:31.303Z,102964.35
2023-02-06T23:21:59.163Z,102965.15
2023-02-06T23:24:27.493Z,102963.36
2023-02-06T23:26:55.310Z,102962.23
2023-02-06T23:29:23.775Z,102963.05
2023-02-06T23:31:52.545Z,102962.29
2023-02-06T23:34:23.673Z,102962.67
2023-02-06T23:36:51.958Z,102963.66
2023-02-06T23:39:23.113Z,102963.80
2023-02-06T23:41:51.172Z,102962.54
2023-02-06T23:44:19.138Z,102968.34
2023-02-06T23:46:47.241Z,102974.63
2023-02-06T23:49:15.037Z,102975.46
2023-02-06T23:51:42.875Z,102976.48
2023-02-06T23:54:10.855Z,102979.39
2023-02-06T23:56:38.604Z,102983.52
2023-02-06T23:59:06.380Z,102983.65
